createdAt,value
2018-08-24T00:00:04.804Z,3.80
2018-08-24T00:02:39.194Z,3.77
2018-08-24T00:05:13.913Z,3.97
2018-08-24T00:07:48.562Z,3.57
2018-08-24T00:10:23.448Z,3.60
2018-08-24T00:12:58.160Z,4.70
2018-08-24T00:15:33.117Z,3.90
2018-08-24T00:18:07.510Z,4.90
2018-08-24T00:20:42.040Z,3.80
2018-08-24T00:23:16.845Z,4.10
2018-08-24T00:25:51.736Z,3.93
2018-08-24T00:28:26.732Z,4.30
2018-08-24T00:31:01.880Z,4.30
2018-08-24T00:33:36.616Z,3.83
2018-08-24T00:36:11.080Z,3.20
2018-08-24T00:38:45.716Z,3.47
2018-08-24T00:41:20.301Z,3.60
2018-08-24T00:43:54.931Z,3.77
2018-08-24T00:46:29.465Z,3.40
2018-08-24T00:49:04.087Z,4.30
2018-08-24T00:51:38.884Z,3.77
2018-08-24T00:54:13.612Z,3.30
2018-08-24T00:56:48.022Z,3.30
2018-08-24T00:59:22.789Z,3.23
2018-08-24T01:01:57.414Z,3.47
2018-08-24T01:04:32.671Z,3.10
2018-08-24T01:07:12.597Z,3.43
2018-08-24T01:09:47.329Z,3.20
2018-08-24T01:12:22.528Z,3.47
2018-08-24T01:14:58.041Z,3.27
2018-08-24T01:17:38.177Z,3.00
2018-08-24T01:20:12.955Z,3.60
2018-08-24T01:22:47.524Z,2.90
2018-08-24T01:25:22.259Z,3.70
2018-08-24T01:27:56.878Z,3.33
2018-08-24T01:30:31.323Z,3.50
2018-08-24T01:33:06.025Z,3.73
2018-08-24T01:35:40.736Z,2.93
2018-08-24T01:38:15.580Z,3.10
2018-08-24T01:40:50.572Z,2.60
2018-08-24T01:43:26.008Z,2.87
2018-08-24T01:46:06.436Z,2.77
2018-08-24T01:48:42.184Z,2.70
2018-08-24T01:51:17.109Z,3.40
2018-08-24T01:53:51.813Z,3.07
2018-08-24T01:56:26.415Z,4.23
2018-08-24T01:59:01.092Z,3.47
2018-08-24T02:01:35.852Z,3.70
2018-08-24T02:04:10.485Z,3.50
2018-08-24T02:06:44.957Z,3.63
2018-08-24T02:09:22.678Z,2.90
2018-08-24T02:11:58.496Z,3.60
2018-08-24T02:14:40.686Z,3.00
2018-08-24T02:17:20.720Z,2.90
2018-08-24T02:20:01.471Z,3.80
2018-08-24T02:22:36.392Z,3.40
2018-08-24T02:25:10.906Z,3.70
2018-08-24T02:27:45.600Z,2.47
2018-08-24T02:30:21.446Z,3.17
2018-08-24T02:32:55.954Z,3.67
2018-08-24T02:35:30.533Z,2.90
2018-08-24T02:38:05.051Z,4.17
2018-08-24T02:40:39.771Z,3.90
2018-08-24T02:43:14.320Z,3.50
2018-08-24T02:45:48.983Z,3.17
2018-08-24T02:48:23.557Z,3.07
2018-08-24T02:50:59.296Z,3.50
2018-08-24T02:53:33.788Z,3.23
2018-08-24T02:56:08.444Z,3.43
2018-08-24T02:58:43.169Z,3.67
2018-08-24T03:01:17.801Z,4.50
2018-08-24T03:03:52.554Z,4.10
2018-08-24T03:06:27.313Z,3.20
2018-08-24T03:09:01.928Z,3.67
2018-08-24T03:11:36.811Z,4.80
2018-08-24T03:14:11.392Z,4.90
2018-08-24T03:16:52.013Z,5.10
2018-08-24T03:19:27.040Z,3.80
2018-08-24T03:22:01.742Z,4.23
2018-08-24T03:24:36.285Z,4.43
2018-08-24T03:27:11.090Z,4.53
2018-08-24T03:29:45.716Z,5.10
2018-08-24T03:32:20.520Z,4.50
2018-08-24T03:34:55.168Z,4.17
2018-08-24T03:37:30.000Z,3.80
2018-08-24T03:40:05.260Z,4.70
2018-08-24T03:42:40.172Z,4.40
2018-08-24T03:45:14.647Z,4.80
2018-08-24T03:47:49.237Z,4.03
2018-08-24T03:50:24.069Z,5.13
2018-08-24T03:52:59.724Z,4.20
2018-08-24T03:55:36.502Z,4.23
2018-08-24T03:58:11.481Z,4.70
2018-08-24T04:00:46.236Z,4.27
2018-08-24T04:03:20.746Z,4.63
2018-08-24T04:05:55.401Z,3.70
2018-08-24T04:08:30.097Z,4.23
2018-08-24T04:11:04.880Z,5.07
2018-08-24T04:13:39.364Z,3.73
2018-08-24T04:16:14.669Z,4.60
2018-08-24T04:18:49.062Z,4.97
2018-08-24T04:21:23.941Z,3.80
2018-08-24T04:23:58.600Z,3.97
2018-08-24T04:26:32.876Z,4.80
2018-08-24T04:29:07.505Z,4.70
2018-08-24T04:31:42.196Z,4.37
2018-08-24T04:34:16.958Z,5.03
2018-08-24T04:36:51.389Z,4.73
2018-08-24T04:39:26.160Z,4.20
2018-08-24T04:42:00.973Z,5.20
2018-08-24T04:44:36.072Z,4.60
2018-08-24T04:47:10.311Z,4.80
2018-08-24T04:49:45.067Z,4.70
2018-08-24T04:52:20.000Z,4.07
2018-08-24T04:54:54.587Z,4.30
2018-08-24T04:57:29.039Z,4.00
2018-08-24T05:00:04.865Z,4.23
2018-08-24T05:02:39.574Z,4.77
2018-08-24T05:05:14.633Z,4.37
2018-08-24T05:07:48.973Z,4.70
2018-08-24T05:10:23.755Z,4.07
2018-08-24T05:12:58.464Z,4.93
2018-08-24T05:15:33.576Z,4.37
2018-08-24T05:18:07.707Z,5.20
2018-08-24T05:20:42.518Z,4.03
2018-08-24T05:23:17.216Z,4.10
2018-08-24T05:25:51.904Z,4.27
2018-08-24T05:28:26.697Z,4.60
2018-08-24T05:31:01.269Z,4.30
2018-08-24T05:33:35.924Z,4.87
2018-08-24T05:36:10.659Z,4.10
2018-08-24T05:38:45.171Z,3.80
2018-08-24T05:41:19.868Z,5.00
2018-08-24T05:43:54.214Z,4.40
2018-08-24T05:46:29.219Z,5.27
2018-08-24T05:49:04.256Z,4.20
2018-08-24T05:51:39.241Z,3.50
2018-08-24T05:54:13.552Z,4.43
2018-08-24T05:56:48.177Z,3.83
2018-08-24T05:59:22.618Z,4.77
2018-08-24T06:01:57.346Z,4.20
2018-08-24T06:04:31.952Z,4.10
2018-08-24T06:07:06.550Z,4.10
2018-08-24T06:09:41.136Z,4.63
2018-08-24T06:12:15.889Z,3.73
2018-08-24T06:14:50.562Z,4.57
2018-08-24T06:17:30.437Z,4.50
2018-08-24T06:20:05.513Z,3.83
2018-08-24T06:22:40.172Z,3.33
2018-08-24T06:25:14.888Z,4.30
2018-08-24T06:27:49.631Z,3.77
2018-08-24T06:30:24.228Z,3.80
2018-08-24T06:32:58.835Z,3.80
2018-08-24T06:35:33.272Z,4.07
2018-08-24T06:38:08.299Z,3.07
2018-08-24T06:40:43.188Z,3.73
2018-08-24T06:43:19.910Z,3.87
2018-08-24T06:45:54.751Z,3.93
2018-08-24T06:48:29.560Z,3.40
2018-08-24T06:51:04.706Z,3.30
2018-08-24T06:53:39.989Z,3.40
2018-08-24T06:56:14.504Z,3.30
2018-08-24T06:58:49.102Z,3.37
2018-08-24T07:01:23.661Z,3.33
2018-08-24T07:03:58.310Z,2.70
2018-08-24T07:06:33.286Z,3.07
2018-08-24T07:09:09.136Z,3.57
2018-08-24T07:11:44.247Z,2.70
2018-08-24T07:14:18.781Z,3.70
2018-08-24T07:16:58.008Z,3.70
2018-08-24T07:19:32.367Z,3.70
2018-08-24T07:22:07.197Z,3.40
2018-08-24T07:24:41.585Z,3.17
2018-08-24T07:27:16.162Z,3.50
2018-08-24T07:29:50.876Z,3.20
2018-08-24T07:32:25.184Z,3.37
2018-08-24T07:34:59.777Z,3.43
2018-08-24T07:37:34.199Z,3.53
2018-08-24T07:40:08.989Z,3.93
2018-08-24T07:42:43.835Z,3.47
2018-08-24T07:45:18.049Z,3.60
2018-08-24T07:47:52.559Z,3.93
2018-08-24T07:50:27.014Z,4.00
2018-08-24T07:53:01.775Z,4.13
2018-08-24T07:55:36.770Z,2.90
2018-08-24T07:58:11.233Z,3.27
2018-08-24T08:00:46.017Z,3.30
2018-08-24T08:03:20.411Z,3.80
2018-08-24T08:05:55.343Z,3.83
2018-08-24T08:08:29.868Z,3.63
2018-08-24T08:11:04.870Z,3.30
2018-08-24T08:13:39.933Z,3.57
2018-08-24T08:16:14.701Z,3.70
2018-08-24T08:18:49.060Z,4.20
2018-08-24T08:21:23.941Z,3.93
2018-08-24T08:23:59.328Z,3.07
2018-08-24T08:26:34.209Z,2.93
2018-08-24T08:29:13.397Z,4.53
2018-08-24T08:31:47.755Z,3.27
2018-08-24T08:34:22.132Z,3.67
2018-08-24T08:36:57.336Z,3.60
2018-08-24T08:39:32.206Z,3.10
2018-08-24T08:42:06.982Z,3.40
2018-08-24T08:44:41.487Z,3.70
2018-08-24T08:47:16.181Z,3.60
2018-08-24T08:49:51.022Z,3.80
2018-08-24T08:52:25.699Z,3.37
2018-08-24T08:55:00.289Z,3.50
2018-08-24T08:57:35.080Z,3.50
2018-08-24T09:00:09.690Z,3.30
2018-08-24T09:02:44.365Z,3.47
2018-08-24T09:05:19.100Z,3.90
2018-08-24T09:07:53.873Z,2.93
2018-08-24T09:10:28.649Z,3.30
2018-08-24T09:13:03.828Z,4.27
2018-08-24T09:15:38.510Z,4.10
2018-08-24T09:18:18.942Z,2.97
2018-08-24T09:20:59.220Z,3.90
2018-08-24T09:23:39.345Z,3.50
2018-08-24T09:26:19.722Z,3.80
2018-08-24T09:28:55.673Z,2.90
2018-08-24T09:31:32.145Z,3.67
2018-08-24T09:34:06.944Z,3.70
2018-08-24T09:36:41.226Z,4.23
2018-08-24T09:39:16.252Z,4.03
2018-08-24T09:41:50.413Z,4.60
2018-08-24T09:44:25.190Z,3.53
2018-08-24T09:47:05.131Z,3.73
2018-08-24T09:49:40.351Z,3.60
2018-08-24T09:52:20.002Z,3.90
2018-08-24T09:54:54.288Z,4.53
2018-08-24T09:57:28.730Z,5.60
2018-08-24T10:00:03.750Z,4.17
2018-08-24T10:02:41.885Z,4.00
2018-08-24T10:05:22.382Z,4.97
2018-08-24T10:08:02.706Z,4.40
2018-08-24T10:10:37.649Z,4.10
2018-08-24T10:13:12.407Z,4.20
2018-08-24T10:15:47.126Z,5.10
2018-08-24T10:18:21.545Z,5.30
2018-08-24T10:20:56.471Z,4.80
2018-08-24T10:23:30.784Z,5.37
2018-08-24T10:26:05.717Z,5.77
2018-08-24T10:28:40.604Z,5.57
2018-08-24T10:31:17.215Z,4.90
2018-08-24T10:33:51.354Z,4.53
2018-08-24T10:36:25.777Z,5.23
2018-08-24T10:39:00.385Z,4.63
2018-08-24T10:41:35.167Z,4.93
2018-08-24T10:44:09.713Z,6.30
2018-08-24T10:46:44.546Z,5.50
2018-08-24T10:49:19.157Z,6.20
2018-08-24T10:51:53.876Z,4.60
2018-08-24T10:54:28.525Z,4.83
2018-08-24T10:57:03.437Z,4.70
2018-08-24T10:59:37.816Z,4.30
2018-08-24T11:02:12.760Z,5.27
2018-08-24T11:04:47.155Z,4.50
2018-08-24T11:07:21.934Z,4.50
2018-08-24T11:09:56.563Z,5.00
2018-08-24T11:12:32.436Z,5.63
2018-08-24T11:15:06.841Z,4.97
2018-08-24T11:17:47.318Z,5.23
2018-08-24T11:20:22.441Z,5.00
2018-08-24T11:22:57.020Z,5.03
2018-08-24T11:25:32.790Z,4.80
2018-08-24T11:28:08.487Z,5.27
2018-08-24T11:30:43.065Z,5.30
2018-08-24T11:33:17.840Z,4.87
2018-08-24T11:35:52.338Z,5.10
2018-08-24T11:38:27.347Z,4.70
2018-08-24T11:41:01.797Z,4.30
2018-08-24T11:43:36.404Z,4.83
2018-08-24T11:46:11.241Z,4.10
2018-08-24T11:48:45.916Z,4.40
2018-08-24T11:51:20.530Z,3.80
2018-08-24T11:53:55.730Z,4.87
2018-08-24T11:56:29.936Z,4.20
2018-08-24T11:59:04.858Z,4.57
2018-08-24T12:01:39.979Z,4.40
2018-08-24T12:04:14.360Z,5.67
2018-08-24T12:06:48.985Z,5.50
2018-08-24T12:09:23.685Z,4.93
2018-08-24T12:11:58.298Z,4.70
2018-08-24T12:14:33.241Z,5.47
2018-08-24T12:17:09.065Z,5.47
2018-08-24T12:19:44.121Z,5.63
2018-08-24T12:22:19.023Z,5.47
2018-08-24T12:24:53.942Z,4.80
2018-08-24T12:27:28.301Z,5.30
2018-08-24T12:30:03.521Z,5.00
2018-08-24T12:32:37.652Z,4.97
2018-08-24T12:35:12.281Z,5.63
2018-08-24T12:37:47.599Z,6.23
2018-08-24T12:40:22.660Z,4.73
2018-08-24T12:42:57.040Z,5.10
2018-08-24T12:45:31.861Z,5.10
2018-08-24T12:48:06.636Z,5.00
2018-08-24T12:50:42.301Z,4.40
2018-08-24T12:53:16.853Z,4.10
2018-08-24T12:55:53.970Z,4.77
2018-08-24T12:58:29.096Z,4.60
2018-08-24T13:01:03.900Z,5.13
2018-08-24T13:03:38.226Z,4.30
2018-08-24T13:06:12.918Z,5.40
2018-08-24T13:08:47.671Z,5.73
2018-08-24T13:11:22.464Z,5.07
2018-08-24T13:13:57.336Z,4.93
2018-08-24T13:16:33.053Z,5.33
2018-08-24T13:19:07.777Z,4.80
2018-08-24T13:21:42.337Z,4.90
2018-08-24T13:24:16.633Z,4.63
2018-08-24T13:26:51.261Z,5.20
2018-08-24T13:29:25.832Z,5.23
2018-08-24T13:32:00.740Z,5.00
2018-08-24T13:34:36.082Z,5.60
2018-08-24T13:37:10.640Z,5.40
2018-08-24T13:39:45.632Z,5.27
2018-08-24T13:42:19.886Z,5.00
2018-08-24T13:44:54.439Z,5.90
2018-08-24T13:47:28.895Z,5.07
2018-08-24T13:50:04.031Z,4.87
2018-08-24T13:52:40.559Z,5.10
2018-08-24T13:55:15.610Z,6.03
2018-08-24T13:57:50.822Z,5.93
2018-08-24T14:00:26.407Z,5.10
2018-08-24T14:03:03.184Z,5.20
2018-08-24T14:05:37.320Z,5.90
2018-08-24T14:08:11.866Z,5.40
2018-08-24T14:10:46.652Z,5.17
2018-08-24T14:13:21.382Z,4.73
2018-08-24T14:15:55.796Z,5.37
2018-08-24T14:18:30.832Z,5.10
2018-08-24T14:21:06.196Z,5.87
2018-08-24T14:23:40.519Z,5.03
2018-08-24T14:26:15.033Z,5.50
2018-08-24T14:28:50.840Z,5.40
2018-08-24T14:31:25.696Z,5.60
2018-08-24T14:34:00.369Z,6.07
2018-08-24T14:36:35.090Z,5.33
2018-08-24T14:39:10.584Z,6.10
2018-08-24T14:41:45.311Z,5.47
2018-08-24T14:44:20.035Z,6.30
2018-08-24T14:46:54.825Z,6.17
2018-08-24T14:49:29.285Z,6.37
2018-08-24T14:52:04.230Z,6.03
2018-08-24T14:54:38.554Z,5.23
2018-08-24T14:57:13.138Z,6.67
2018-08-24T14:59:47.647Z,6.40
2018-08-24T15:02:22.360Z,6.97
2018-08-24T15:04:56.841Z,8.87
2018-08-24T15:07:31.391Z,8.73
2018-08-24T15:10:06.324Z,10.00
2018-08-24T15:12:40.972Z,9.93
2018-08-24T15:15:15.329Z,9.70
2018-08-24T15:17:50.054Z,9.13
2018-08-24T15:20:24.503Z,10.07
2018-08-24T15:22:59.899Z,9.60
2018-08-24T15:25:36.020Z,9.63
2018-08-24T15:28:10.749Z,11.87
2018-08-24T15:30:45.175Z,9.33
2018-08-24T15:33:20.162Z,10.33
2018-08-24T15:35:54.562Z,12.17
2018-08-24T15:38:29.325Z,11.17
2018-08-24T15:41:03.713Z,12.27
2018-08-24T15:43:38.574Z,11.20
2018-08-24T15:46:14.149Z,9.50
2018-08-24T15:48:48.747Z,13.27
2018-08-24T15:51:23.329Z,12.00
2018-08-24T15:53:58.137Z,11.00
2018-08-24T15:56:33.176Z,11.27
2018-08-24T15:59:07.409Z,12.20
2018-08-24T16:01:42.244Z,11.13
2018-08-24T16:04:16.960Z,11.30
2018-08-24T16:06:51.357Z,12.93
2018-08-24T16:09:26.146Z,11.50
2018-08-24T16:12:01.531Z,9.60
2018-08-24T16:14:36.877Z,8.87
2018-08-24T16:17:11.325Z,7.50
2018-08-24T16:19:46.716Z,9.60
2018-08-24T16:22:21.723Z,7.60
2018-08-24T16:24:58.376Z,8.87
2018-08-24T16:27:33.804Z,6.90
2018-08-24T16:30:09.847Z,8.07
2018-08-24T16:32:44.520Z,6.70
2018-08-24T16:35:19.130Z,8.50
2018-08-24T16:37:53.679Z,7.13
2018-08-24T16:40:29.408Z,7.60
2018-08-24T16:43:04.438Z,7.60
2018-08-24T16:45:38.694Z,6.67
2018-08-24T16:48:13.150Z,6.93
2018-08-24T16:50:47.779Z,7.50
2018-08-24T16:53:22.349Z,8.47
2018-08-24T16:55:58.292Z,7.23
2018-08-24T16:58:33.016Z,6.80
2018-08-24T17:01:07.681Z,7.40
2018-08-24T17:03:42.107Z,7.60
2018-08-24T17:06:16.992Z,8.23
2018-08-24T17:08:51.595Z,8.97
2018-08-24T17:11:26.308Z,7.20
2018-08-24T17:14:00.759Z,8.07
2018-08-24T17:16:35.721Z,5.87
2018-08-24T17:19:10.189Z,6.50
2018-08-24T17:21:45.124Z,6.93
2018-08-24T17:24:19.428Z,6.60
2018-08-24T17:26:54.020Z,6.53
2018-08-24T17:29:28.746Z,6.40
2018-08-24T17:32:04.950Z,6.97
2018-08-24T17:37:19.197Z,6.53
2018-08-24T17:39:54.012Z,5.63
2018-08-24T17:42:28.633Z,6.33
2018-08-24T17:45:03.413Z,6.67
2018-08-24T17:47:38.052Z,8.33
2018-08-24T17:50:12.619Z,6.27
2018-08-24T17:52:47.652Z,7.03
2018-08-24T17:55:23.008Z,6.00
2018-08-24T17:57:57.637Z,5.60
2018-08-24T18:00:33.292Z,5.90
2018-08-24T18:03:07.822Z,5.80
2018-08-24T18:05:43.442Z,4.50
2018-08-24T18:08:18.168Z,5.90
2018-08-24T18:10:52.614Z,6.00
2018-08-24T18:13:27.526Z,6.90
2018-08-24T18:16:02.052Z,6.10
2018-08-24T18:18:37.412Z,6.17
2018-08-24T18:21:11.792Z,7.10
2018-08-24T18:23:46.794Z,6.57
2018-08-24T18:26:21.270Z,7.87
2018-08-24T18:28:56.257Z,8.23
2018-08-24T18:31:30.870Z,8.27
2018-08-24T18:34:05.885Z,8.07
2018-08-24T18:36:40.562Z,7.83
2018-08-24T18:39:15.554Z,6.57
2018-08-24T18:41:50.028Z,7.67
2018-08-24T18:44:24.844Z,9.00
2018-08-24T18:46:59.875Z,8.63
2018-08-24T18:49:35.891Z,8.77
2018-08-24T18:52:11.770Z,7.97
2018-08-24T18:54:46.692Z,7.43
2018-08-24T18:57:21.146Z,8.53
2018-08-24T18:59:55.752Z,8.67
2018-08-24T19:02:31.346Z,9.30
2018-08-24T19:05:05.999Z,8.87
2018-08-24T19:07:40.663Z,8.40
2018-08-24T19:10:15.394Z,8.23
2018-08-24T19:12:50.555Z,9.00
2018-08-24T19:15:24.970Z,7.70
2018-08-24T19:18:05.569Z,8.80
2018-08-24T19:21:45.190Z,8.40
2018-08-24T19:24:19.691Z,9.33
2018-08-24T19:26:54.302Z,8.30
2018-08-24T19:29:34.931Z,9.00
2018-08-24T19:32:09.932Z,9.33
2018-08-24T19:34:44.661Z,8.00
2018-08-24T19:37:19.305Z,9.03
2018-08-24T19:39:59.716Z,7.30
2018-08-24T19:42:34.613Z,9.00
2018-08-24T19:45:09.588Z,8.37
2018-08-24T19:47:49.726Z,6.80
2018-08-24T19:50:24.977Z,7.67
2018-08-24T19:52:59.485Z,7.50
2018-08-24T19:55:34.180Z,8.10
2018-08-24T19:58:14.284Z,8.90
2018-08-24T20:00:49.669Z,8.80
2018-08-24T20:03:24.933Z,8.80
2018-08-24T20:06:05.788Z,8.27
2018-08-24T20:08:46.167Z,8.53
2018-08-24T20:11:21.710Z,7.97
2018-08-24T20:13:56.802Z,10.70
2018-08-24T20:16:36.964Z,9.33
2018-08-24T20:19:12.109Z,9.70
2018-08-24T20:21:48.590Z,8.03
2018-08-24T20:24:23.675Z,9.37
2018-08-24T20:26:58.355Z,9.90
2018-08-24T20:29:33.183Z,10.80
2018-08-24T20:32:07.785Z,10.30
2018-08-24T20:34:43.065Z,11.03
2018-08-24T20:37:18.383Z,10.10
2018-08-24T20:39:52.944Z,9.17
2018-08-24T20:42:27.862Z,9.20
2018-08-24T20:45:02.408Z,9.97
2018-08-24T20:47:37.022Z,10.17
2018-08-24T20:50:11.852Z,10.83
2018-08-24T20:52:46.872Z,9.40
2018-08-24T20:55:21.415Z,10.13
2018-08-24T20:57:55.837Z,10.90
2018-08-24T21:00:30.642Z,10.40
2018-08-24T21:03:06.257Z,10.93
2018-08-24T21:05:41.460Z,11.10
2018-08-24T21:08:15.628Z,10.77
2018-08-24T21:10:50.489Z,9.77
2018-08-24T21:13:25.164Z,12.30
2018-08-24T21:15:59.835Z,10.83
2018-08-24T21:18:34.567Z,9.00
2018-08-24T21:21:09.399Z,10.17
2018-08-24T21:23:43.823Z,9.70
2018-08-24T21:26:18.274Z,10.57
2018-08-24T21:28:52.958Z,10.27
2018-08-24T21:31:27.585Z,9.47
2018-08-24T21:34:02.283Z,9.70
2018-08-24T21:36:37.046Z,10.47
2018-08-24T21:39:12.275Z,12.30
2018-08-24T21:41:47.440Z,10.67
2018-08-24T21:44:21.824Z,13.10
2018-08-24T21:46:57.080Z,10.73
2018-08-24T21:49:31.460Z,11.20
2018-08-24T21:52:06.122Z,10.93
2018-08-24T21:54:41.001Z,11.80
2018-08-24T21:57:15.600Z,12.93
2018-08-24T21:59:50.086Z,12.23
2018-08-24T22:02:25.061Z,11.60
2018-08-24T22:04:59.391Z,11.00
2018-08-24T22:07:34.246Z,10.27
2018-08-24T22:10:08.600Z,10.00
2018-08-24T22:12:43.314Z,12.33
2018-08-24T22:15:17.861Z,11.30
2018-08-24T22:17:52.844Z,12.87
2018-08-24T22:20:27.109Z,9.57
2018-08-24T22:23:02.344Z,14.17
2018-08-24T22:25:36.977Z,13.17
2018-08-24T22:28:11.610Z,12.03
2018-08-24T22:30:46.248Z,11.83
2018-08-24T22:33:21.429Z,14.20
2018-08-24T22:35:56.773Z,12.93
2018-08-24T22:38:31.153Z,12.10
2018-08-24T22:41:06.083Z,11.93
2018-08-24T22:43:41.093Z,12.10
2018-08-24T22:46:15.553Z,10.97
2018-08-24T22:48:50.252Z,11.97
2018-08-24T22:51:24.965Z,11.63
2018-08-24T22:53:59.673Z,10.87
2018-08-24T22:56:34.245Z,12.57
2018-08-24T22:59:09.093Z,12.50
2018-08-24T23:01:43.916Z,15.33
2018-08-24T23:04:18.218Z,12.83
2018-08-24T23:06:52.842Z,13.00
2018-08-24T23:09:27.673Z,12.53
2018-08-24T23:12:02.276Z,13.70
2018-08-24T23:14:37.127Z,12.07
2018-08-24T23:17:12.954Z,12.33
2018-08-24T23:19:48.260Z,11.37
2018-08-24T23:22:22.626Z,11.70
2018-08-24T23:24:57.538Z,13.70
2018-08-24T23:27:32.376Z,13.10
2018-08-24T23:30:07.844Z,12.77
2018-08-24T23:32:42.052Z,14.00
2018-08-24T23:35:16.989Z,11.37
2018-08-24T23:37:51.565Z,11.70
2018-08-24T23:40:26.328Z,13.67
2018-08-24T23:43:00.698Z,12.17
2018-08-24T23:45:36.500Z,11.70
2018-08-24T23:48:10.996Z,13.63
2018-08-24T23:50:45.912Z,11.13
2018-08-24T23:53:20.503Z,14.00
2018-08-24T23:55:55.037Z,12.27
2018-08-24T23:58:29.648Z,13.30
